Lockbourne, Ohio
Current Conditions -  °F | °C
As of 10:35 PM on Friday 28 Nov 2014 (Local Time) from KLCK Reporting Station
Clear Clear  
Wind Chill: 26°   Ceiling: Unl
Heat Index: 30°   Visibility: 10mi
Dew Point: 19°   Wind: 5mph
Humidity: 63%   Direction: 160°SSE
Pressure: 30.14"   Gusts: NA
Location:  39.81°N, 82.97°W
Report Text: KLCK 290335Z AUTO 16004KT 10SM CLR M01/M07 A3014 RMK AO2 T10091071
Loading
Personal Weather Stations






























Interactive Weather Map New forecast layout! Learn more

10-Day Weather Forecast

Advertisements
Track Severe Weather on mobile